McCarran International Airport
KLAS : now visible

Airfield :











YOU CAN JOIN US ON...

 
LOGIN :

Register | Disclaimer

   EN    FR    IT 

 









Legend :    VFR   Marginal VFR   IFR   Intensive IFR   Very Intensive IFR
Visi :
Ceiling :
>= 8 km
>= 3000ft
5 to 8 km
1000 to 3000 ft
1500m to 5 km
500 to 1000 ft
800 to 1500m
200 to 500 ft
< 800m
< 200 ft
Symbols :   Thunderstorms  Fog  Heavy snow  Heavy precipitations  Wind > 20 kt






- Airport Elevation : 2181 ft
- IATA code : LAS


KLAS - McCarran International

CURRENT METAR :
  • 121756Z 06004KT 10SM CLR 28/M10 A3007 RMK AO2 SLP160 T02781100 10283 20200 50002

EXPIRED METARs :
  • 121656Z VRB06KT 10SM CLR 27/M11 A3007 RMK AO2 SLP159 T02671106
  • 121556Z 00000KT 10SM CLR 25/M07 A3007 RMK AO2 SLP159 T02501072 $

TAF KLAS
Valid from the 12 at 18:00 until the 14 at 00:00 UTC


121720Z 1218/1324 05007KT P6SM SKC
FM122100 13008KT P6SM SKC
FM130400 22006KT P6SM SKC
FM131200 VRB05KT P6SM SKC
FM131800 19007KT P6SM SKC
FM132100 19012G20KT P6SM SKC
KZLA FIR / North America



MET'MAP, your aeronautical weather chart ! - Copyright ORBIFLY December 2007 - Disclaimer

ORBIFLY MET'MAP TEAM :

Programming & Development : Alexandra Zaïnal
Concept & original design : Baudouin d'Aumeries
Assistance for programming : Marc-Olivier Méhu
Technical & hardware support : Manuel Goepfert

Contact : metmap@orbifly.com




SOURCES & CREDITS :

   NOAA       Earth
Advisory